Time;durP1;ratioP1;P1;durP2;ratioP2;P2;SDS_P1;SDS_P2;PMS_P1;PMS_P2;Temp;Humidity;BMP_temperature;BMP_pressure;BME280_temperature;BME280_humidity;BME280_pressure;Samples;Min_cycle;Max_cycle;Signal;HPM_P1;HPM_P2
2021/12/13 00:01:08;;;;;;;53.30;25.50;;;;;;;;;;5032864;28;20564;-48
2021/12/13 00:03:43;;;;;;;44.53;24.00;;;;;;;;;;5032804;28;20779;-48
2021/12/13 00:06:11;;;;;;;51.67;24.47;;;;;;;;;;5031692;28;20425;-49
2021/12/13 00:08:39;;;;;;;53.20;24.70;;;;;;;;;;5032565;28;20445;-47
2021/12/13 00:11:16;;;;;;;51.53;23.63;;;;;;;;;;5032446;28;20899;-50
2021/12/13 00:13:44;;;;;;;54.97;23.70;;;;;;;;;;5032350;28;20406;-48
2021/12/13 00:16:10;;;;;;;49.17;22.70;;;;;;;;;;5032733;28;20457;-50
2021/12/13 00:18:38;;;;;;;44.73;21.37;;;;;;;;;;5035869;28;20898;-48
2021/12/13 00:21:07;;;;;;;45.03;22.87;;;;;;;;;;5035835;28;20820;-48
2021/12/13 00:23:42;;;;;;;41.73;21.90;;;;;;;;;;5035668;28;20500;-51
2021/12/13 00:26:08;;;;;;;42.03;23.10;;;;;;;;;;5035132;28;20428;-49
2021/12/13 00:28:39;;;;;;;41.33;21.30;;;;;;;;;;5035286;28;20433;-49
2021/12/13 00:31:24;;;;;;;35.37;22.13;;;;;;;;;;5035462;28;20394;-47
2021/12/13 00:34:08;;;;;;;39.80;21.70;;;;;;;;;;5035458;28;20796;-48
2021/12/13 00:36:38;;;;;;;33.63;19.67;;;;;;;;;;5034878;28;20414;-48
2021/12/13 00:39:15;;;;;;;38.33;20.87;;;;;;;;;;5035867;28;20415;-48
2021/12/13 00:41:42;;;;;;;38.27;21.23;;;;;;;;;;5035269;28;20456;-48
2021/12/13 00:44:15;;;;;;;36.23;19.90;;;;;;;;;;5035355;28;20894;-47
2021/12/13 00:46:43;;;;;;;36.20;21.07;;;;;;;;;;5034898;28;20422;-50
2021/12/13 00:49:11;;;;;;;31.30;19.17;;;;;;;;;;5035122;28;20759;-50
2021/12/13 00:51:43;;;;;;;30.07;18.20;;;;;;;;;;5034060;28;20418;-49
2021/12/13 00:54:32;;;;;;;31.90;18.03;;;;;;;;;;5035529;28;20410;-48
2021/12/13 00:57:03;;;;;;;26.10;15.90;;;;;;;;;;5035203;28;20468;-48
2021/12/13 00:59:31;;;;;;;29.10;17.30;;;;;;;;;;5035427;28;20406;-48
2021/12/13 01:02:01;;;;;;;26.03;16.40;;;;;;;;;;5035219;28;20479;-48
2021/12/13 01:04:46;;;;;;;29.07;16.73;;;;;;;;;;5034865;28;20398;-48
2021/12/13 01:07:44;;;;;;;24.37;15.23;;;;;;;;;;5035064;28;20401;-47
2021/12/13 01:10:29;;;;;;;23.97;14.90;;;;;;;;;;5012282;28;20416;-47
2021/12/13 01:12:57;;;;;;;31.13;16.63;;;;;;;;;;5035322;28;20473;-51
2021/12/13 01:15:47;;;;;;;21.23;14.23;;;;;;;;;;5034352;28;20925;-48
2021/12/13 01:18:30;;;;;;;24.63;15.43;;;;;;;;;;5035129;28;20437;-50
2021/12/13 01:21:12;;;;;;;21.93;14.60;;;;;;;;;;5035304;28;20459;-47
2021/12/13 01:23:44;;;;;;;24.33;14.50;;;;;;;;;;5035343;28;20460;-47
2021/12/13 01:26:36;;;;;;;22.53;13.77;;;;;;;;;;5034416;28;20488;-49
2021/12/13 01:29:01;;;;;;;21.03;13.93;;;;;;;;;;5034900;28;20456;-48
2021/12/13 01:31:34;;;;;;;25.90;14.57;;;;;;;;;;5035130;28;20461;-47
2021/12/13 01:34:01;;;;;;;22.17;12.97;;;;;;;;;;5034812;28;20417;-50
2021/12/13 01:36:29;;;;;;;25.00;13.30;;;;;;;;;;5034257;28;20446;-48
2021/12/13 01:38:58;;;;;;;21.83;14.00;;;;;;;;;;5034395;28;20406;-48
2021/12/13 01:41:29;;;;;;;33.77;16.80;;;;;;;;;;5034081;28;20994;-47
2021/12/13 01:43:58;;;;;;;28.53;16.00;;;;;;;;;;5034615;28;20812;-49
2021/12/13 01:46:24;;;;;;;34.63;17.17;;;;;;;;;;5033842;28;20430;-48
2021/12/13 01:48:52;;;;;;;32.10;17.77;;;;;;;;;;5034046;28;20769;-48
2021/12/13 01:51:21;;;;;;;30.97;18.30;;;;;;;;;;5034088;28;20402;-48
2021/12/13 01:53:57;;;;;;;29.80;17.97;;;;;;;;;;5034123;28;20406;-48
2021/12/13 01:59:06;;;;;;;32.97;19.53;;;;;;;;;;5034236;28;20409;-47
2021/12/13 02:01:33;;;;;;;31.40;19.27;;;;;;;;;;5033255;28;20479;-49
2021/12/13 02:04:02;;;;;;;40.13;19.73;;;;;;;;;;5033019;28;20402;-49
2021/12/13 02:06:39;;;;;;;32.57;19.30;;;;;;;;;;5032775;28;20424;-50
2021/12/13 02:09:17;;;;;;;35.47;18.93;;;;;;;;;;5034219;28;20402;-48
2021/12/13 02:11:44;;;;;;;32.97;18.80;;;;;;;;;;5033825;28;20414;-49
2021/12/13 02:14:16;;;;;;;31.73;17.43;;;;;;;;;;5034155;28;20406;-47
2021/12/13 02:16:57;;;;;;;35.13;19.50;;;;;;;;;;5033085;28;20968;-48
2021/12/13 02:19:26;;;;;;;37.00;20.40;;;;;;;;;;5033840;28;20415;-49
2021/12/13 02:22:03;;;;;;;36.43;18.83;;;;;;;;;;5033881;28;20504;-48
2021/12/13 02:24:29;;;;;;;29.17;17.90;;;;;;;;;;5033862;28;20398;-48
2021/12/13 02:26:58;;;;;;;38.73;17.43;;;;;;;;;;5033082;28;20468;-47
2021/12/13 02:29:34;;;;;;;37.63;18.37;;;;;;;;;;5033853;28;20474;-50
2021/12/13 02:32:01;;;;;;;35.43;17.60;;;;;;;;;;5033567;28;20745;-48
2021/12/13 02:34:29;;;;;;;28.50;17.20;;;;;;;;;;5032935;28;20467;-52
2021/12/13 02:36:56;;;;;;;35.77;17.27;;;;;;;;;;5032983;28;20433;-48
2021/12/13 02:39:28;;;;;;;25.67;14.97;;;;;;;;;;5032987;28;20441;-47
2021/12/13 02:41:55;;;;;;;27.10;15.80;;;;;;;;;;5033443;28;21157;-48
2021/12/13 02:44:24;;;;;;;33.10;16.23;;;;;;;;;;5033487;28;20505;-49
2021/12/13 02:46:51;;;;;;;27.10;15.83;;;;;;;;;;5032722;28;20509;-48
2021/12/13 02:49:18;;;;;;;32.30;17.57;;;;;;;;;;5033005;28;20517;-50
2021/12/13 02:51:46;;;;;;;28.77;15.93;;;;;;;;;;5033593;28;20437;-47
2021/12/13 02:54:18;;;;;;;31.53;17.30;;;;;;;;;;5033274;28;20441;-48
2021/12/13 02:56:58;;;;;;;29.37;15.80;;;;;;;;;;5032648;28;20428;-48
2021/12/13 02:59:27;;;;;;;27.80;16.90;;;;;;;;;;5033287;28;20406;-47
2021/12/13 03:02:07;;;;;;;27.30;15.07;;;;;;;;;;5032722;28;20536;-48
2021/12/13 03:04:34;;;;;;;31.33;15.63;;;;;;;;;;5032497;28;20406;-47
2021/12/13 03:07:01;;;;;;;23.80;15.33;;;;;;;;;;5033154;28;20395;-47
2021/12/13 03:09:29;;;;;;;28.03;14.60;;;;;;;;;;5032941;28;20944;-48
2021/12/13 03:11:56;;;;;;;29.93;14.87;;;;;;;;;;5033064;28;20406;-47
2021/12/13 03:14:28;;;;;;;22.57;14.10;;;;;;;;;;5032908;28;21111;-48
2021/12/13 03:17:01;;;;;;;21.57;13.80;;;;;;;;;;5032482;28;20433;-48
2021/12/13 03:19:39;;;;;;;24.03;14.63;;;;;;;;;;5032946;28;20414;-50
2021/12/13 03:22:24;;;;;;;22.50;14.20;;;;;;;;;;5032762;28;20821;-48
2021/12/13 03:25:08;;;;;;;30.07;14.03;;;;;;;;;;5032091;28;20412;-49
2021/12/13 03:27:37;;;;;;;21.00;13.93;;;;;;;;;;5033107;28;20410;-48
2021/12/13 03:30:17;;;;;;;26.10;14.57;;;;;;;;;;5032819;28;20406;-48
2021/12/13 03:32:55;;;;;;;22.90;13.40;;;;;;;;;;5033044;28;20394;-48
2021/12/13 03:35:40;;;;;;;30.20;13.47;;;;;;;;;;5031977;28;20868;-48
2021/12/13 03:38:17;;;;;;;20.70;13.73;;;;;;;;;;5033037;28;20447;-50
2021/12/13 03:40:44;;;;;;;19.10;12.90;;;;;;;;;;5032806;28;20455;-48
2021/12/13 03:43:12;;;;;;;28.13;13.43;;;;;;;;;;5033072;28;20895;-48
2021/12/13 03:45:49;;;;;;;21.37;13.53;;;;;;;;;;5031535;28;20441;-48
2021/12/13 03:48:17;;;;;;;20.23;13.07;;;;;;;;;;5033054;28;20544;-48
2021/12/13 03:50:45;;;;;;;17.80;12.67;;;;;;;;;;5034495;28;20475;-48
2021/12/13 03:53:13;;;;;;;24.63;14.10;;;;;;;;;;5037673;28;20436;-50
2021/12/13 03:55:40;;;;;;;23.30;12.87;;;;;;;;;;5036434;28;20426;-50
2021/12/13 03:58:08;;;;;;;21.73;13.17;;;;;;;;;;5037375;28;20408;-50
2021/12/13 04:00:36;;;;;;;24.13;13.37;;;;;;;;;;5036452;28;20507;-50
2021/12/13 04:03:04;;;;;;;22.03;12.47;;;;;;;;;;5037103;28;20408;-50
2021/12/13 04:05:31;;;;;;;30.00;12.50;;;;;;;;;;5036168;28;20425;-50
2021/12/13 04:07:59;;;;;;;24.40;12.13;;;;;;;;;;5037091;28;20963;-50
2021/12/13 04:10:46;;;;;;;23.83;12.90;;;;;;;;;;5036812;28;20407;-51
2021/12/13 04:13:14;;;;;;;19.67;12.73;;;;;;;;;;5036795;28;20464;-50
2021/12/13 04:16:12;;;;;;;19.90;12.37;;;;;;;;;;5035642;28;20426;-50
2021/12/13 04:21:21;;;;;;;19.00;12.50;;;;;;;;;;5036267;28;20818;-50
2021/12/13 04:24:00;;;;;;;17.07;11.40;;;;;;;;;;5037638;28;20429;-50
2021/12/13 04:26:27;;;;;;;19.37;12.17;;;;;;;;;;5036593;28;20428;-50
2021/12/13 04:28:55;;;;;;;22.07;12.03;;;;;;;;;;5037075;28;20418;-51
2021/12/13 04:31:23;;;;;;;22.17;12.10;;;;;;;;;;5037168;28;20405;-51
2021/12/13 04:33:51;;;;;;;18.70;11.53;;;;;;;;;;5036845;28;20417;-50
2021/12/13 04:36:18;;;;;;;21.33;11.23;;;;;;;;;;5036456;28;20429;-50
2021/12/13 04:38:50;;;;;;;17.20;11.43;;;;;;;;;;5037025;28;20434;-51
2021/12/13 04:41:28;;;;;;;14.73;10.30;;;;;;;;;;5036444;28;20499;-50
2021/12/13 04:43:55;;;;;;;16.00;10.10;;;;;;;;;;5035638;28;20909;-51
2021/12/13 04:46:22;;;;;;;17.00;11.00;;;;;;;;;;5035626;28;20422;-50
2021/12/13 04:48:51;;;;;;;18.77;10.17;;;;;;;;;;5036620;28;20900;-50
2021/12/13 04:51:19;;;;;;;21.70;11.17;;;;;;;;;;5036460;28;20409;-50
2021/12/13 04:53:47;;;;;;;19.70;10.73;;;;;;;;;;5036285;28;20824;-50
2021/12/13 04:56:22;;;;;;;19.60;12.07;;;;;;;;;;5036044;28;20436;-51
2021/12/13 04:58:49;;;;;;;19.13;12.23;;;;;;;;;;5036766;28;20407;-50
2021/12/13 05:01:15;;;;;;;18.53;11.20;;;;;;;;;;5035865;28;20551;-50
2021/12/13 05:03:43;;;;;;;18.83;11.47;;;;;;;;;;5034554;28;20724;-50
2021/12/13 05:06:11;;;;;;;19.83;11.63;;;;;;;;;;5034342;28;20508;-51
2021/12/13 05:08:39;;;;;;;17.43;11.00;;;;;;;;;;5035135;28;20408;-51
2021/12/13 05:11:07;;;;;;;19.03;10.07;;;;;;;;;;5035337;28;20484;-50
2021/12/13 05:13:36;;;;;;;20.97;10.70;;;;;;;;;;5035789;28;20893;-51
2021/12/13 05:16:09;;;;;;;21.60;12.07;;;;;;;;;;5035235;28;20417;-50
2021/12/13 05:18:39;;;;;;;15.20;9.87;;;;;;;;;;5035548;28;20497;-51
2021/12/13 05:21:08;;;;;;;22.00;12.20;;;;;;;;;;5035971;28;20499;-50
2021/12/13 05:23:39;;;;;;;17.83;10.73;;;;;;;;;;5036145;28;20402;-50
2021/12/13 05:26:06;;;;;;;19.70;10.53;;;;;;;;;;5035780;28;20431;-50
2021/12/13 05:28:50;;;;;;;12.83;10.17;;;;;;;;;;5034872;28;20436;-50
2021/12/13 05:31:18;;;;;;;14.53;10.03;;;;;;;;;;5034984;28;20412;-50
2021/12/13 05:33:45;;;;;;;15.37;9.77;;;;;;;;;;5035341;28;20417;-50
2021/12/13 05:36:31;;;;;;;17.47;10.20;;;;;;;;;;5034233;28;20540;-51
2021/12/13 05:39:04;;;;;;;15.60;9.87;;;;;;;;;;5035656;28;20792;-51
2021/12/13 05:41:31;;;;;;;13.80;9.10;;;;;;;;;;5035956;28;20457;-50
2021/12/13 05:44:02;;;;;;;15.30;9.40;;;;;;;;;;5036085;28;20404;-51
2021/12/13 05:46:39;;;;;;;14.00;9.00;;;;;;;;;;5033398;28;20454;-51
2021/12/13 05:49:08;;;;;;;15.03;9.80;;;;;;;;;;5035994;28;20417;-50
2021/12/13 05:51:42;;;;;;;13.90;9.47;;;;;;;;;;5034988;28;20875;-50
2021/12/13 05:54:23;;;;;;;16.40;8.40;;;;;;;;;;5035390;28;20410;-50
2021/12/13 05:56:52;;;;;;;15.80;9.87;;;;;;;;;;5034845;28;20488;-50
2021/12/13 05:59:20;;;;;;;18.00;10.10;;;;;;;;;;5035181;28;20485;-50
2021/12/13 06:01:55;;;;;;;13.70;9.23;;;;;;;;;;5035654;28;20548;-51
2021/12/13 06:04:32;;;;;;;15.03;9.90;;;;;;;;;;5035614;28;20828;-50
2021/12/13 06:06:58;;;;;;;13.27;9.00;;;;;;;;;;5036162;28;20449;-50
2021/12/13 06:09:39;;;;;;;14.47;10.30;;;;;;;;;;5035846;28;20959;-50
2021/12/13 06:12:07;;;;;;;11.03;8.30;;;;;;;;;;5035455;28;20908;-51
2021/12/13 06:14:33;;;;;;;15.07;8.60;;;;;;;;;;5034429;28;20437;-50
2021/12/13 06:17:03;;;;;;;13.80;9.33;;;;;;;;;;5035733;28;20500;-50
2021/12/13 06:19:31;;;;;;;12.07;8.40;;;;;;;;;;5036101;28;20468;-51
2021/12/13 06:22:00;;;;;;;12.20;8.37;;;;;;;;;;5035857;28;20965;-50
2021/12/13 06:24:31;;;;;;;12.77;9.00;;;;;;;;;;5036707;28;20459;-50
2021/12/13 06:27:06;;;;;;;16.83;8.40;;;;;;;;;;5035988;28;20422;-50
2021/12/13 06:29:51;;;;;;;13.73;8.90;;;;;;;;;;5036640;28;20418;-51
2021/12/13 06:32:22;;;;;;;13.00;8.10;;;;;;;;;;5036242;28;20397;-50
2021/12/13 06:34:48;;;;;;;13.43;8.30;;;;;;;;;;5035243;28;20413;-50
2021/12/13 06:37:14;;;;;;;16.00;8.93;;;;;;;;;;5035890;28;20398;-50
2021/12/13 06:39:40;;;;;;;12.57;9.07;;;;;;;;;;5036123;28;20423;-50
2021/12/13 06:42:07;;;;;;;10.63;7.87;;;;;;;;;;5035870;28;20806;-51
2021/12/13 06:44:38;;;;;;;12.37;8.90;;;;;;;;;;5035228;28;20506;-50
2021/12/13 06:47:15;;;;;;;12.60;8.50;;;;;;;;;;5036043;28;20394;-51
2021/12/13 06:49:47;;;;;;;14.67;9.90;;;;;;;;;;5035910;28;20951;-51
2021/12/13 06:52:13;;;;;;;11.40;8.20;;;;;;;;;;5036132;28;20473;-51
2021/12/13 06:54:42;;;;;;;12.03;8.27;;;;;;;;;;5035151;28;20917;-50
2021/12/13 06:57:12;;;;;;;13.13;8.13;;;;;;;;;;5036100;28;20413;-51
2021/12/13 07:00:04;;;;;;;13.20;9.47;;;;;;;;;;5036320;28;20414;-50
2021/12/13 07:02:45;;;;;;;10.70;8.60;;;;;;;;;;5034136;28;20428;-51
2021/12/13 07:05:16;;;;;;;11.00;7.97;;;;;;;;;;5034839;28;20418;-50
2021/12/13 07:07:48;;;;;;;12.57;8.53;;;;;;;;;;5035454;28;20388;-50
2021/12/13 07:10:16;;;;;;;13.13;8.00;;;;;;;;;;5035627;28;20413;-50
2021/12/13 07:12:50;;;;;;;11.90;7.87;;;;;;;;;;5035803;28;20445;-51
2021/12/13 07:15:25;;;;;;;13.30;8.60;;;;;;;;;;5034524;28;20405;-51
2021/12/13 07:18:30;;;;;;;14.70;8.30;;;;;;;;;;5033979;28;20400;-50
2021/12/13 07:21:02;;;;;;;15.33;10.87;;;;;;;;;;4992902;28;20560;-51
2021/12/13 07:23:29;;;;;;;13.47;8.03;;;;;;;;;;5028804;28;20415;-51
2021/12/13 07:25:55;;;;;;;11.70;7.87;;;;;;;;;;5035353;28;20447;-51
2021/12/13 07:28:32;;;;;;;13.90;8.20;;;;;;;;;;5037599;28;20422;-51
2021/12/13 07:30:59;;;;;;;12.73;8.73;;;;;;;;;;5037913;28;20412;-51
2021/12/13 07:33:42;;;;;;;11.83;8.40;;;;;;;;;;5038044;28;20492;-50
2021/12/13 07:36:19;;;;;;;13.43;6.80;;;;;;;;;;5037653;28;20425;-51
2021/12/13 07:39:07;;;;;;;11.57;8.23;;;;;;;;;;5037377;28;20406;-51
2021/12/13 07:41:45;;;;;;;11.97;7.27;;;;;;;;;;5036869;28;20484;-51
2021/12/13 07:44:25;;;;;;;10.93;8.20;;;;;;;;;;5037004;28;20397;-51
2021/12/13 07:47:03;;;;;;;13.07;8.03;;;;;;;;;;5036228;28;20985;-51
2021/12/13 07:49:34;;;;;;;15.70;7.90;;;;;;;;;;5036906;28;20398;-51
2021/12/13 07:52:02;;;;;;;8.57;6.67;;;;;;;;;;5037185;28;20440;-51
2021/12/13 07:54:29;;;;;;;11.83;7.77;;;;;;;;;;5036704;28;20448;-50
2021/12/13 07:56:57;;;;;;;18.03;8.30;;;;;;;;;;5036567;28;20432;-51
2021/12/13 07:59:23;;;;;;;12.07;8.20;;;;;;;;;;5037377;28;20425;-51
2021/12/13 08:01:51;;;;;;;8.90;8.00;;;;;;;;;;5036943;28;20454;-50
2021/12/13 08:04:21;;;;;;;10.63;6.73;;;;;;;;;;5036829;28;20497;-50
2021/12/13 08:06:53;;;;;;;12.00;7.60;;;;;;;;;;5036372;28;20418;-51
2021/12/13 08:09:22;;;;;;;14.30;8.07;;;;;;;;;;5036121;28;20601;-51
2021/12/13 08:11:56;;;;;;;10.80;7.30;;;;;;;;;;5036391;28;20406;-51
2021/12/13 08:14:30;;;;;;;13.40;8.63;;;;;;;;;;5035771;28;20452;-51
2021/12/13 08:16:56;;;;;;;12.40;8.57;;;;;;;;;;5035484;28;20429;-51
2021/12/13 08:19:27;;;;;;;11.53;7.37;;;;;;;;;;5036340;28;20405;-50
2021/12/13 08:21:58;;;;;;;11.23;6.77;;;;;;;;;;5035867;28;20450;-51
2021/12/13 08:24:30;;;;;;;9.97;7.33;;;;;;;;;;5035684;28;20421;-51
2021/12/13 08:26:59;;;;;;;9.10;7.43;;;;;;;;;;5036046;28;20422;-51
2021/12/13 08:29:31;;;;;;;9.33;7.73;;;;;;;;;;5034595;28;20784;-50
2021/12/13 08:31:59;;;;;;;10.80;8.30;;;;;;;;;;5035729;28;20402;-51
2021/12/13 08:34:30;;;;;;;12.77;7.30;;;;;;;;;;5036175;28;20444;-51
2021/12/13 08:36:57;;;;;;;9.63;7.30;;;;;;;;;;5033373;28;20835;-51
2021/12/13 08:39:26;;;;;;;11.43;7.43;;;;;;;;;;5035133;28;20409;-51
2021/12/13 08:41:58;;;;;;;9.83;7.43;;;;;;;;;;5034511;28;21015;-51
2021/12/13 08:44:29;;;;;;;10.30;7.73;;;;;;;;;;5034319;28;20455;-51
2021/12/13 08:46:59;;;;;;;11.47;7.30;;;;;;;;;;5034514;28;20433;-51
2021/12/13 08:49:31;;;;;;;12.43;7.50;;;;;;;;;;5034173;28;20433;-51
2021/12/13 08:52:05;;;;;;;10.37;7.63;;;;;;;;;;5034678;28;20402;-51
2021/12/13 08:54:40;;;;;;;10.53;7.73;;;;;;;;;;5034603;28;20488;-51
2021/12/13 08:57:08;;;;;;;9.90;7.27;;;;;;;;;;5034655;28;20489;-51
2021/12/13 08:59:35;;;;;;;9.50;7.20;;;;;;;;;;5034237;28;20898;-51
2021/12/13 09:02:05;;;;;;;8.77;7.30;;;;;;;;;;5025179;28;20458;-51
2021/12/13 09:04:33;;;;;;;8.83;7.17;;;;;;;;;;5034410;28;20939;-50
2021/12/13 09:07:00;;;;;;;15.20;7.73;;;;;;;;;;5032692;28;20430;-50
2021/12/13 09:09:27;;;;;;;10.07;7.30;;;;;;;;;;5034703;28;20407;-51
2021/12/13 09:11:57;;;;;;;9.40;7.33;;;;;;;;;;5033186;28;20421;-50
2021/12/13 09:14:36;;;;;;;10.40;7.60;;;;;;;;;;5034101;28;20409;-51
2021/12/13 09:17:32;;;;;;;9.73;7.23;;;;;;;;;;5033756;28;20406;-50
2021/12/13 09:20:15;;;;;;;10.23;7.00;;;;;;;;;;5025207;28;20456;-51
2021/12/13 09:23:01;;;;;;;12.53;7.30;;;;;;;;;;5034369;28;20452;-51
2021/12/13 09:25:36;;;;;;;12.27;7.30;;;;;;;;;;5025828;28;20434;-51
2021/12/13 09:28:02;;;;;;;8.00;7.20;;;;;;;;;;5034077;28;20488;-51
2021/12/13 09:30:34;;;;;;;9.10;6.87;;;;;;;;;;5034057;28;20901;-50
2021/12/13 09:33:03;;;;;;;11.93;7.53;;;;;;;;;;5033815;28;20398;-51
2021/12/13 09:35:38;;;;;;;12.13;7.03;;;;;;;;;;5033562;28;20514;-51
2021/12/13 09:38:19;;;;;;;12.53;7.33;;;;;;;;;;5026703;28;20411;-51
2021/12/13 09:40:51;;;;;;;11.43;7.40;;;;;;;;;;5013962;28;20454;-50
2021/12/13 09:43:18;;;;;;;8.30;5.53;;;;;;;;;;5013766;28;20961;-51
2021/12/13 09:45:48;;;;;;;9.63;7.27;;;;;;;;;;5012912;28;20497;-51
2021/12/13 09:48:20;;;;;;;8.20;6.80;;;;;;;;;;5013265;28;20859;-51
2021/12/13 09:50:48;;;;;;;14.60;7.37;;;;;;;;;;5013213;28;20473;-52
2021/12/13 09:53:15;;;;;;;9.90;7.20;;;;;;;;;;5014191;28;20446;-52
2021/12/13 09:55:44;;;;;;;9.93;6.30;;;;;;;;;;5013110;28;20814;-53
2021/12/13 09:58:16;;;;;;;9.07;6.73;;;;;;;;;;5013498;28;20799;-53
2021/12/13 10:00:51;;;;;;;11.20;7.47;;;;;;;;;;5013118;28;20463;-52
2021/12/13 10:03:23;;;;;;;9.57;6.53;;;;;;;;;;5013342;28;20454;-52
2021/12/13 10:05:51;;;;;;;10.87;7.00;;;;;;;;;;5012224;28;20419;-51
2021/12/13 10:08:20;;;;;;;8.00;6.50;;;;;;;;;;5012982;28;20403;-52
2021/12/13 10:10:51;;;;;;;8.40;6.00;;;;;;;;;;5012957;28;20410;-51
2021/12/13 10:13:25;;;;;;;12.23;6.50;;;;;;;;;;5012806;28;20469;-51
2021/12/13 10:15:53;;;;;;;7.90;5.50;;;;;;;;;;5012281;28;20423;-52
2021/12/13 10:18:21;;;;;;;9.30;5.97;;;;;;;;;;5011646;28;20418;-52
2021/12/13 10:20:52;;;;;;;7.30;5.90;;;;;;;;;;5012885;28;20455;-52
2021/12/13 10:23:20;;;;;;;8.13;5.87;;;;;;;;;;5012378;28;20411;-50
2021/12/13 10:25:48;;;;;;;9.33;5.77;;;;;;;;;;5027326;28;20698;-52
2021/12/13 10:28:17;;;;;;;8.00;5.53;;;;;;;;;;5012312;28;20456;-53
2021/12/13 10:30:48;;;;;;;7.30;5.70;;;;;;;;;;5012828;28;20403;-50
2021/12/13 10:33:15;;;;;;;9.57;5.50;;;;;;;;;;5012435;28;20494;-52
2021/12/13 10:35:42;;;;;;;8.10;6.10;;;;;;;;;;5011743;28;20419;-52
2021/12/13 10:38:11;;;;;;;9.17;5.40;;;;;;;;;;5012320;28;20411;-52
2021/12/13 10:40:37;;;;;;;9.77;6.23;;;;;;;;;;5012387;28;20461;-53
2021/12/13 10:43:05;;;;;;;8.50;5.63;;;;;;;;;;5012516;28;20403;-53
2021/12/13 10:45:34;;;;;;;12.17;5.70;;;;;;;;;;5011784;28;20433;-53
2021/12/13 10:48:01;;;;;;;5.77;4.83;;;;;;;;;;5012520;28;20400;-53
2021/12/13 10:50:29;;;;;;;6.60;5.30;;;;;;;;;;5012316;28;20462;-53
2021/12/13 10:52:58;;;;;;;6.37;4.70;;;;;;;;;;5012476;28;20396;-52
2021/12/13 10:55:27;;;;;;;6.20;5.30;;;;;;;;;;5011677;28;20455;-53
2021/12/13 10:57:54;;;;;;;8.00;5.60;;;;;;;;;;5012394;28;20417;-53
2021/12/13 11:00:20;;;;;;;10.03;5.17;;;;;;;;;;5011511;28;20403;-53
2021/12/13 11:02:46;;;;;;;7.37;5.77;;;;;;;;;;5012327;28;20406;-52
2021/12/13 11:05:15;;;;;;;8.03;6.03;;;;;;;;;;5011430;28;20506;-52
2021/12/13 11:07:41;;;;;;;10.20;5.87;;;;;;;;;;5012445;28;20906;-52
2021/12/13 11:10:10;;;;;;;6.27;5.40;;;;;;;;;;5012227;28;20469;-52
2021/12/13 11:12:40;;;;;;;7.73;5.20;;;;;;;;;;5012521;28;20783;-53
2021/12/13 11:15:14;;;;;;;5.23;4.73;;;;;;;;;;5011510;28;20434;-51
2021/12/13 11:17:40;;;;;;;6.53;5.70;;;;;;;;;;5012134;28;21132;-53
2021/12/13 11:20:38;;;;;;;6.90;5.40;;;;;;;;;;5011944;28;20404;-53
2021/12/13 11:23:04;;;;;;;6.97;6.03;;;;;;;;;;4989519;28;20428;-52
2021/12/13 11:25:37;;;;;;;7.70;5.20;;;;;;;;;;5011233;28;20415;-53
2021/12/13 11:28:04;;;;;;;5.77;5.17;;;;;;;;;;5011832;28;20902;-52
2021/12/13 11:30:33;;;;;;;6.50;5.53;;;;;;;;;;5011898;28;20407;-53
2021/12/13 11:32:59;;;;;;;6.37;5.77;;;;;;;;;;5012015;28;20403;-52
2021/12/13 11:35:51;;;;;;;6.20;5.53;;;;;;;;;;5011677;28;20427;-53
2021/12/13 11:38:36;;;;;;;5.87;4.90;;;;;;;;;;4996577;28;20417;-53
2021/12/13 11:41:08;;;;;;;7.47;6.03;;;;;;;;;;5011905;28;20794;-53
2021/12/13 11:43:49;;;;;;;6.90;6.17;;;;;;;;;;5012101;28;20944;-52
2021/12/13 11:46:34;;;;;;;8.90;5.40;;;;;;;;;;5011492;28;20867;-53
2021/12/13 11:49:19;;;;;;;9.20;5.83;;;;;;;;;;5011840;28;20456;-51
2021/12/13 11:52:04;;;;;;;10.47;6.00;;;;;;;;;;5011718;28;20434;-53
2021/12/13 11:54:39;;;;;;;7.53;6.83;;;;;;;;;;5011334;28;20764;-53
2021/12/13 11:57:19;;;;;;;6.63;6.00;;;;;;;;;;5011637;28;20407;-51
2021/12/13 12:00:04;;;;;;;7.47;5.90;;;;;;;;;;5011595;28;20433;-53
2021/12/13 12:02:32;;;;;;;7.13;5.73;;;;;;;;;;5011832;28;20450;-50
2021/12/13 12:05:05;;;;;;;6.30;5.70;;;;;;;;;;5027411;28;20477;-52
2021/12/13 12:07:49;;;;;;;6.97;6.30;;;;;;;;;;5023578;28;20452;-51
2021/12/13 12:10:15;;;;;;;6.37;5.70;;;;;;;;;;5031428;28;20434;-52
2021/12/13 12:13:00;;;;;;;6.57;5.73;;;;;;;;;;5034832;28;20398;-53
2021/12/13 12:15:27;;;;;;;8.20;5.50;;;;;;;;;;5034269;28;20983;-52
2021/12/13 12:17:54;;;;;;;7.13;6.23;;;;;;;;;;5035136;28;20403;-51
2021/12/13 12:20:27;;;;;;;7.40;6.00;;;;;;;;;;5034649;28;20417;-53
2021/12/13 12:22:55;;;;;;;6.63;6.03;;;;;;;;;;5034992;28;20481;-52
2021/12/13 12:25:23;;;;;;;6.27;5.70;;;;;;;;;;5034359;28;20437;-51
2021/12/13 12:27:49;;;;;;;5.97;5.43;;;;;;;;;;5034818;28;20975;-51
2021/12/13 12:30:23;;;;;;;5.60;5.00;;;;;;;;;;5034747;28;20463;-52
2021/12/13 12:32:54;;;;;;;8.50;6.83;;;;;;;;;;5034331;28;20398;-50
2021/12/13 12:35:19;;;;;;;6.20;5.70;;;;;;;;;;5034357;28;20483;-52
2021/12/13 12:38:01;;;;;;;8.27;6.23;;;;;;;;;;5034944;28;20775;-52
2021/12/13 12:40:35;;;;;;;7.00;6.30;;;;;;;;;;5034744;28;20483;-53
2021/12/13 12:43:03;;;;;;;5.97;5.53;;;;;;;;;;5034769;28;20399;-52
2021/12/13 12:45:32;;;;;;;5.63;5.10;;;;;;;;;;5033939;28;20413;-53
2021/12/13 12:47:58;;;;;;;5.93;5.10;;;;;;;;;;5034773;28;20887;-53
2021/12/13 12:50:24;;;;;;;5.90;5.30;;;;;;;;;;5034458;28;20414;-53
2021/12/13 12:52:51;;;;;;;5.70;5.20;;;;;;;;;;5034554;28;20406;-53
2021/12/13 12:55:24;;;;;;;5.50;5.00;;;;;;;;;;5034057;28;20517;-53
2021/12/13 12:57:50;;;;;;;5.80;5.30;;;;;;;;;;5034468;28;20404;-53
2021/12/13 13:00:21;;;;;;;8.37;5.03;;;;;;;;;;5034352;28;20398;-52
2021/12/13 13:02:47;;;;;;;7.37;5.10;;;;;;;;;;5034087;28;20430;-52
2021/12/13 13:05:13;;;;;;;5.50;5.00;;;;;;;;;;5033512;28;20799;-53
2021/12/13 13:07:39;;;;;;;10.87;5.30;;;;;;;;;;5034275;28;20874;-53
2021/12/13 13:10:22;;;;;;;9.60;4.70;;;;;;;;;;5032796;28;20419;-53
2021/12/13 13:12:49;;;;;;;7.40;5.77;;;;;;;;;;5034031;28;20398;-52
2021/12/13 13:15:19;;;;;;;6.10;5.30;;;;;;;;;;5033374;28;20435;-51
2021/12/13 13:17:47;;;;;;;6.80;4.63;;;;;;;;;;5034117;28;20434;-51
2021/12/13 13:20:22;;;;;;;9.37;5.20;;;;;;;;;;5033647;28;20410;-50
2021/12/13 13:22:49;;;;;;;5.67;5.07;;;;;;;;;;5033404;28;20437;-52
2021/12/13 13:25:21;;;;;;;6.00;4.33;;;;;;;;;;5033234;28;20418;-52
2021/12/13 13:27:48;;;;;;;9.10;5.53;;;;;;;;;;5033614;28;20510;-53
2021/12/13 13:30:20;;;;;;;14.33;4.30;;;;;;;;;;5033890;28;20399;-53
2021/12/13 13:32:46;;;;;;;4.30;3.90;;;;;;;;;;5033722;28;20948;-52
2021/12/13 13:35:12;;;;;;;5.03;4.00;;;;;;;;;;5032721;28;20433;-53
2021/12/13 13:37:39;;;;;;;4.40;4.00;;;;;;;;;;5033658;28;20410;-52
2021/12/13 13:40:07;;;;;;;5.40;4.50;;;;;;;;;;5033593;28;20434;-51
2021/12/13 13:42:35;;;;;;;4.00;3.60;;;;;;;;;;5033667;28;20454;-51
2021/12/13 13:45:20;;;;;;;10.10;4.97;;;;;;;;;;5031616;28;20472;-49
2021/12/13 13:47:48;;;;;;;7.57;3.40;;;;;;;;;;5033254;28;20402;-49
2021/12/13 13:50:33;;;;;;;4.30;3.67;;;;;;;;;;5033405;28;20406;-49
2021/12/13 13:53:04;;;;;;;3.60;3.30;;;;;;;;;;5033277;28;20406;-49
2021/12/13 13:55:32;;;;;;;6.40;3.53;;;;;;;;;;5033412;28;20426;-52
2021/12/13 13:58:00;;;;;;;4.17;3.87;;;;;;;;;;5032860;28;20395;-53
2021/12/13 14:00:40;;;;;;;3.97;3.57;;;;;;;;;;5032951;28;20428;-51
2021/12/13 14:03:07;;;;;;;3.03;2.83;;;;;;;;;;5033024;28;20455;-52
2021/12/13 14:05:34;;;;;;;4.20;3.80;;;;;;;;;;5032281;28;20462;-52
2021/12/13 14:08:00;;;;;;;3.43;3.10;;;;;;;;;;5032212;28;20434;-51
2021/12/13 14:10:27;;;;;;;3.90;3.30;;;;;;;;;;5032621;28;20442;-53
2021/12/13 14:12:55;;;;;;;5.40;3.40;;;;;;;;;;5032813;28;20398;-52
2021/12/13 14:15:30;;;;;;;3.80;3.50;;;;;;;;;;5032014;28;20425;-52
2021/12/13 14:17:57;;;;;;;3.20;2.40;;;;;;;;;;5032673;28;20892;-51
2021/12/13 14:20:23;;;;;;;4.70;3.23;;;;;;;;;;5032369;28;20748;-53
2021/12/13 14:22:50;;;;;;;4.87;3.50;;;;;;;;;;5026726;28;20415;-52
2021/12/13 14:25:49;;;;;;;5.13;3.17;;;;;;;;;;5011878;28;20423;-53
2021/12/13 14:28:21;;;;;;;3.63;2.90;;;;;;;;;;4990202;28;20450;-51
2021/12/13 14:30:49;;;;;;;3.43;3.13;;;;;;;;;;5012640;28;20742;-53
2021/12/13 14:33:20;;;;;;;3.30;2.70;;;;;;;;;;5012706;28;20430;-51
2021/12/13 14:35:46;;;;;;;3.33;3.03;;;;;;;;;;5011125;28;20427;-52
2021/12/13 14:38:12;;;;;;;4.27;3.00;;;;;;;;;;5012558;28;20403;-53
2021/12/13 14:40:44;;;;;;;3.93;2.80;;;;;;;;;;5012516;28;20502;-53
2021/12/13 14:43:18;;;;;;;4.90;2.70;;;;;;;;;;5018099;28;20426;-53
2021/12/13 14:45:44;;;;;;;3.67;3.37;;;;;;;;;;5028934;28;20430;-53
2021/12/13 14:48:10;;;;;;;3.30;3.00;;;;;;;;;;5032948;28;20402;-52
2021/12/13 14:50:36;;;;;;;3.90;3.20;;;;;;;;;;5033196;28;20473;-52
2021/12/13 14:53:06;;;;;;;4.40;2.40;;;;;;;;;;5032785;28;20430;-53
2021/12/13 14:55:37;;;;;;;2.83;2.60;;;;;;;;;;5031985;28;20949;-52
2021/12/13 14:58:05;;;;;;;5.77;3.23;;;;;;;;;;5032766;28;20406;-52
2021/12/13 15:00:34;;;;;;;3.33;3.00;;;;;;;;;;5032184;28;20768;-52
2021/12/13 15:03:09;;;;;;;3.13;2.83;;;;;;;;;;5032495;28;20909;-52